Time;durP1;ratioP1;P1;durP2;ratioP2;P2;SDS_P1;SDS_P2;PMS_P1;PMS_P2;Temp;Humidity;BMP_temperature;BMP_pressure;BME280_temperature;BME280_humidity;BME280_pressure;Samples;Min_cycle;Max_cycle;Signal;HPM_P1;HPM_P2
2023/12/16 00:00:57;;;;;;;6.90;5.70;;;;;;;0.73;100.00;99970.81;105356;1260;73108;-82
2023/12/16 00:03:26;;;;;;;6.90;5.40;;;;;;;0.74;100.00;99977.69;105347;1259;71210;-83
2023/12/16 00:05:54;;;;;;;6.40;5.20;;;;;;;0.76;100.00;99986.31;105418;1257;61139;-84
2023/12/16 00:08:22;;;;;;;6.60;5.80;;;;;;;0.75;100.00;99992.14;105334;1257;61145;-84
2023/12/16 00:10:50;;;;;;;8.60;5.40;;;;;;;0.76;100.00;99994.95;105341;1257;74222;-82
2023/12/16 00:13:22;;;;;;;7.80;5.90;;;;;;;0.78;100.00;99993.89;105429;1262;73141;-83
2023/12/16 00:15:49;;;;;;;8.90;6.30;;;;;;;0.78;100.00;99997.77;105530;1258;72621;-86
2023/12/16 00:18:16;;;;;;;7.10;6.40;;;;;;;0.79;100.00;100001.11;105386;1259;61077;-83
2023/12/16 00:20:44;;;;;;;7.80;6.30;;;;;;;0.80;100.00;100001.64;105338;1261;61114;-82
2023/12/16 00:23:12;;;;;;;7.10;5.50;;;;;;;0.80;100.00;100003.05;105351;1264;73024;-84
2023/12/16 00:25:39;;;;;;;6.10;5.40;;;;;;;0.81;100.00;100008.70;105364;1258;74070;-83
2023/12/16 00:28:07;;;;;;;7.10;5.70;;;;;;;0.81;100.00;100011.88;105302;1258;72300;-86
2023/12/16 00:30:34;;;;;;;7.30;5.10;;;;;;;0.81;100.00;100009.41;105278;1267;61286;-83
2023/12/16 00:33:01;;;;;;;6.40;5.60;;;;;;;0.81;100.00;100009.94;105375;1262;61168;-83
2023/12/16 00:35:28;;;;;;;7.70;5.90;;;;;;;0.81;100.00;100007.29;105393;1262;72955;-84
2023/12/16 00:37:55;;;;;;;6.20;5.60;;;;;;;0.82;100.00;100012.74;105391;1257;75546;-83
2023/12/16 00:40:22;;;;;;;7.70;5.90;;;;;;;0.81;100.00;100014.16;105437;1262;72593;-83
2023/12/16 00:42:49;;;;;;;7.70;5.80;;;;;;;0.82;100.00;100021.56;105401;1259;61177;-84
2023/12/16 00:45:18;;;;;;;8.10;6.30;;;;;;;0.81;100.00;100018.75;105420;1261;61165;-83
2023/12/16 00:47:47;;;;;;;8.00;5.50;;;;;;;0.82;100.00;100018.20;105324;1260;72983;-82
2023/12/16 00:50:15;;;;;;;7.60;6.30;;;;;;;0.82;100.00;100019.09;105470;1262;74396;-83
2023/12/16 00:52:42;;;;;;;8.10;6.60;;;;;;;0.83;100.00;100016.63;105377;1262;73625;-83
2023/12/16 00:55:09;;;;;;;6.60;5.10;;;;;;;0.83;100.00;100020.85;105359;1258;61075;-84
2023/12/16 00:57:38;;;;;;;7.10;5.80;;;;;;;0.83;100.00;100016.98;105378;1258;61162;-83
2023/12/16 01:00:07;;;;;;;6.30;5.70;;;;;;;0.84;100.00;100018.21;105474;1261;72012;-83
2023/12/16 01:02:34;;;;;;;7.80;5.50;;;;;;;0.85;100.00;100017.14;105420;1257;74821;-82
2023/12/16 01:05:01;;;;;;;6.90;5.80;;;;;;;0.85;100.00;100021.20;105433;1257;72586;-83
2023/12/16 01:07:29;;;;;;;7.50;5.90;;;;;;;0.85;100.00;100020.85;105409;1260;61779;-83
2023/12/16 01:09:56;;;;;;;6.90;6.00;;;;;;;0.84;100.00;100022.27;105455;1264;61174;-83
2023/12/16 01:12:23;;;;;;;7.80;6.50;;;;;;;0.85;100.00;100019.62;105339;1259;73078;-83
2023/12/16 01:14:50;;;;;;;8.30;6.50;;;;;;;0.85;100.00;100017.67;105678;1258;74643;-83
2023/12/16 01:17:17;;;;;;;9.20;7.40;;;;;;;0.85;100.00;100017.14;105702;1257;72729;-83
2023/12/16 01:19:44;;;;;;;10.30;8.00;;;;;;;0.85;100.00;100011.50;105388;1263;61144;-83
2023/12/16 01:22:13;;;;;;;11.00;9.80;;;;;;;0.86;100.00;100007.09;105346;1259;61168;-82
2023/12/16 01:24:40;;;;;;;10.70;9.60;;;;;;;0.88;100.00;100015.73;105372;1259;71649;-85
2023/12/16 01:27:07;;;;;;;10.20;8.60;;;;;;;0.87;100.00;100013.43;105467;1258;73376;-84
2023/12/16 01:29:34;;;;;;;10.00;8.00;;;;;;;0.88;100.00;100019.59;105329;1259;72555;-84
2023/12/16 01:32:01;;;;;;;8.70;7.70;;;;;;;0.89;100.00;100022.07;105339;1258;62120;-82
2023/12/16 01:34:28;;;;;;;8.70;7.10;;;;;;;0.90;100.00;100028.24;105402;1264;61104;-83
2023/12/16 01:36:56;;;;;;;7.90;6.30;;;;;;;0.91;100.00;100030.88;105160;1259;73012;-84
2023/12/16 01:39:23;;;;;;;9.90;6.60;;;;;;;0.92;100.00;100027.00;105308;1264;74038;-84
2023/12/16 01:41:50;;;;;;;8.90;6.60;;;;;;;0.92;100.00;100021.52;105234;1259;70831;-84
2023/12/16 01:44:17;;;;;;;6.90;5.20;;;;;;;0.93;100.00;100029.81;105324;1259;61246;-82
2023/12/16 01:46:44;;;;;;;9.20;6.70;;;;;;;0.95;100.00;100027.34;105288;1259;61000;-84
2023/12/16 01:49:12;;;;;;;9.00;6.40;;;;;;;0.96;100.00;100027.15;105373;1259;72952;-85
2023/12/16 01:51:40;;;;;;;6.60;5.70;;;;;;;0.96;100.00;100021.50;105328;1263;73960;-83
2023/12/16 01:54:07;;;;;;;9.50;6.60;;;;;;;0.97;100.00;100025.90;105332;1260;73282;-85
2023/12/16 01:56:34;;;;;;;8.50;6.20;;;;;;;0.98;100.00;100022.55;105340;1259;61154;-84
2023/12/16 01:59:02;;;;;;;7.70;5.80;;;;;;;1.00;100.00;100025.73;106154;1256;61094;-83
2023/12/16 02:01:29;;;;;;;7.70;5.90;;;;;;;1.01;100.00;100028.90;108694;1254;71787;-83
2023/12/16 02:03:56;;;;;;;7.10;5.40;;;;;;;1.02;100.00;100028.35;108864;1256;74240;-82
2023/12/16 02:06:25;;;;;;;6.60;5.20;;;;;;;1.04;100.00;100034.17;108937;1254;71747;-84
2023/12/16 02:08:52;;;;;;;7.40;5.60;;;;;;;1.07;100.00;100035.39;108953;1256;60301;-83
2023/12/16 02:11:19;;;;;;;6.30;5.10;;;;;;;1.10;100.00;100038.56;108898;1255;59417;-83
2023/12/16 02:13:49;;;;;;;9.00;5.60;;;;;;;1.12;100.00;100037.67;105664;1258;74381;-85
2023/12/16 02:16:16;;;;;;;7.50;5.40;;;;;;;1.13;100.00;100036.61;105647;1256;74265;-85
2023/12/16 02:18:43;;;;;;;6.60;4.90;;;;;;;1.14;100.00;100029.73;105720;1256;70567;-83
2023/12/16 02:21:10;;;;;;;7.50;6.10;;;;;;;1.15;100.00;100031.47;107606;1256;61243;-82
2023/12/16 02:23:39;;;;;;;7.30;5.30;;;;;;;1.16;100.00;100034.30;108253;1256;60938;-83
2023/12/16 02:26:06;;;;;;;8.30;6.20;;;;;;;1.18;100.00;100036.75;105765;1256;73180;-82
2023/12/16 02:28:33;;;;;;;6.10;5.10;;;;;;;1.19;99.99;100039.40;105493;1261;74129;-84
2023/12/16 02:31:00;;;;;;;7.10;5.60;;;;;;;1.21;99.94;100042.20;105736;1261;72177;-82
2023/12/16 02:33:27;;;;;;;7.40;5.60;;;;;;;1.23;99.91;100046.61;105748;1256;61063;-82
2023/12/16 02:35:54;;;;;;;6.80;5.80;;;;;;;1.24;100.00;100047.48;105564;1258;61083;-83
2023/12/16 02:38:22;;;;;;;7.50;5.40;;;;;;;1.25;100.00;100041.84;105412;1256;73200;-84
2023/12/16 02:40:50;;;;;;;7.60;5.20;;;;;;;1.24;99.97;100039.72;105408;1256;73433;-84
2023/12/16 02:43:17;;;;;;;8.00;5.80;;;;;;;1.25;99.96;100037.42;105646;1256;73219;-83
2023/12/16 02:45:44;;;;;;;8.20;6.30;;;;;;;1.25;99.96;100039.20;105522;1256;61295;-83
2023/12/16 02:48:11;;;;;;;7.60;6.20;;;;;;;1.26;99.99;100044.11;105488;1256;61028;-84
2023/12/16 02:50:39;;;;;;;7.50;5.60;;;;;;;1.25;99.97;100038.13;105515;1256;74616;-83
2023/12/16 02:53:07;;;;;;;9.50;6.10;;;;;;;1.25;99.99;100042.73;105451;1256;74230;-83
2023/12/16 02:55:34;;;;;;;8.40;5.50;;;;;;;1.25;100.00;100045.71;105616;1256;72357;-83
2023/12/16 02:58:01;;;;;;;8.30;6.60;;;;;;;1.26;100.00;100052.24;105370;1256;61140;-83
2023/12/16 03:00:29;;;;;;;9.00;6.70;;;;;;;1.26;100.00;100052.23;105529;1260;61145;-84
2023/12/16 03:02:56;;;;;;;8.70;6.60;;;;;;;1.25;100.00;100053.14;105520;1258;73044;-83
2023/12/16 03:05:23;;;;;;;7.40;5.90;;;;;;;1.25;100.00;100056.83;105426;1260;74398;-83
2023/12/16 03:07:51;;;;;;;10.00;6.10;;;;;;;1.26;99.98;100054.17;105389;1257;73513;-82
2023/12/16 03:10:18;;;;;;;9.00;6.60;;;;;;;1.28;99.90;100047.65;105454;1256;61173;-83
2023/12/16 03:12:45;;;;;;;8.20;6.90;;;;;;;1.27;99.94;100050.48;105558;1256;61124;-83
2023/12/16 03:15:13;;;;;;;8.30;6.90;;;;;;;1.27;99.94;100053.30;105543;1256;73109;-84
2023/12/16 03:17:40;;;;;;;8.20;6.30;;;;;;;1.28;99.98;100038.46;105458;1256;74429;-85
2023/12/16 03:20:09;;;;;;;8.20;6.40;;;;;;;1.29;99.85;100039.17;105454;1256;73819;-83
2023/12/16 03:22:36;;;;;;;9.50;7.00;;;;;;;1.30;99.87;100034.41;105598;1256;61108;-83
2023/12/16 03:25:03;;;;;;;9.40;7.10;;;;;;;1.30;99.92;100038.46;105502;1255;61169;-83
2023/12/16 03:27:31;;;;;;;10.40;7.50;;;;;;;1.31;99.94;100046.22;105449;1256;73609;-84
2023/12/16 03:29:58;;;;;;;10.20;7.60;;;;;;;1.32;99.93;100044.80;105398;1256;74385;-83
2023/12/16 03:32:25;;;;;;;9.90;7.20;;;;;;;1.33;99.99;100044.98;105545;1256;71633;-85
2023/12/16 03:34:52;;;;;;;8.70;6.40;;;;;;;1.33;99.97;100038.45;105313;1261;61369;-85
2023/12/16 03:37:19;;;;;;;8.30;6.30;;;;;;;1.34;100.00;100045.50;105747;1256;61071;-85
2023/12/16 03:39:46;;;;;;;8.90;6.30;;;;;;;1.35;100.00;100048.85;105686;1255;73874;-83
2023/12/16 03:42:13;;;;;;;8.00;6.20;;;;;;;1.35;100.00;100050.08;105638;1256;74625;-84
2023/12/16 03:44:41;;;;;;;10.60;7.60;;;;;;;1.34;100.00;100052.57;105643;1258;70825;-83
2023/12/16 03:47:09;;;;;;;8.30;6.60;;;;;;;1.34;100.00;100050.98;105475;1261;61137;-83
2023/12/16 03:49:35;;;;;;;9.50;7.10;;;;;;;1.34;100.00;100054.14;105650;1258;61124;-84
2023/12/16 03:52:03;;;;;;;11.20;7.60;;;;;;;1.34;100.00;100044.64;105548;1258;73603;-83
2023/12/16 03:54:31;;;;;;;11.00;8.40;;;;;;;1.35;100.00;100043.73;105753;1256;73970;-83
2023/12/16 03:56:58;;;;;;;11.60;8.10;;;;;;;1.34;100.00;100044.98;105454;1256;72533;-83
2023/12/16 03:59:25;;;;;;;10.10;7.40;;;;;;;1.34;100.00;100041.79;105670;1258;61518;-84
2023/12/16 04:01:52;;;;;;;9.80;7.60;;;;;;;1.34;100.00;100046.20;105524;1258;61078;-84
2023/12/16 04:04:19;;;;;;;13.00;8.70;;;;;;;1.34;100.00;100044.80;105669;1258;74929;-85
2023/12/16 04:06:47;;;;;;;10.50;7.80;;;;;;;1.35;100.00;100038.96;105610;1254;73448;-84
2023/12/16 04:09:14;;;;;;;7.60;6.70;;;;;;;1.34;100.00;100035.63;105739;1254;71698;-82
2023/12/16 04:11:48;;;;;;;11.60;8.10;;;;;;;1.34;100.00;100034.91;105513;1256;61164;-83
2023/12/16 04:14:15;;;;;;;11.50;9.00;;;;;;;1.34;100.00;100035.09;105571;1256;61107;-84
2023/12/16 04:16:42;;;;;;;11.30;8.80;;;;;;;1.34;100.00;100032.80;105833;1255;71751;-84
2023/12/16 04:19:09;;;;;;;13.10;10.00;;;;;;;1.34;100.00;100038.09;105500;1258;74458;-83
2023/12/16 04:21:37;;;;;;;10.70;8.80;;;;;;;1.32;100.00;100043.73;105905;1257;70866;-82
2023/12/16 04:24:04;;;;;;;10.40;9.10;;;;;;;1.32;100.00;100048.50;106180;1256;61183;-83
2023/12/16 04:26:31;;;;;;;14.20;10.10;;;;;;;1.33;100.00;100053.45;105932;1255;60998;-84
2023/12/16 04:28:58;;;;;;;11.00;9.60;;;;;;;1.34;100.00;100055.21;105862;1256;72000;-83
2023/12/16 04:31:25;;;;;;;12.80;9.30;;;;;;;1.34;100.00;100052.56;105813;1259;74153;-83
2023/12/16 04:33:55;;;;;;;10.60;8.60;;;;;;;1.36;100.00;100062.44;107892;1254;72835;-79
2023/12/16 04:36:23;;;;;;;11.90;9.80;;;;;;;1.38;100.00;100066.30;108781;1255;60987;-81
2023/12/16 04:38:50;;;;;;;10.20;8.40;;;;;;;1.40;100.00;100067.35;109115;1256;59494;-81
2023/12/16 04:41:17;;;;;;;13.20;10.10;;;;;;;1.43;100.00;100071.73;109144;1254;73809;-81
2023/12/16 04:43:44;;;;;;;13.80;8.00;;;;;;;1.46;100.00;100078.79;108933;1254;74686;-81
2023/12/16 04:46:11;;;;;;;11.90;8.80;;;;;;;1.48;100.00;100077.36;108510;1254;70926;-86
2023/12/16 04:48:39;;;;;;;10.10;8.30;;;;;;;1.51;100.00;100077.17;105799;1256;63289;-82
2023/12/16 04:51:06;;;;;;;9.30;7.70;;;;;;;1.55;100.00;100078.39;105794;1256;61509;-82
2023/12/16 04:53:33;;;;;;;9.80;8.10;;;;;;;1.57;100.00;100078.55;105518;1262;72933;-83
2023/12/16 04:56:00;;;;;;;11.60;8.70;;;;;;;1.58;100.00;100073.61;105899;1258;74853;-84
2023/12/16 04:58:29;;;;;;;9.40;7.60;;;;;;;1.60;100.00;100078.55;105639;1256;72727;-83
2023/12/16 05:00:57;;;;;;;9.40;8.40;;;;;;;1.62;100.00;100082.58;105715;1258;61194;-83
2023/12/16 05:03:25;;;;;;;11.30;7.10;;;;;;;1.65;100.00;100085.40;105785;1254;61011;-83
2023/12/16 05:05:52;;;;;;;7.70;6.80;;;;;;;1.66;100.00;100089.47;107503;1254;74003;-81
2023/12/16 05:08:22;;;;;;;8.00;6.70;;;;;;;1.67;100.00;100093.16;108176;1257;73390;-81
2023/12/16 05:10:49;;;;;;;8.80;6.80;;;;;;;1.69;100.00;100097.02;106144;1258;71686;-83
2023/12/16 05:13:16;;;;;;;9.30;6.80;;;;;;;1.71;100.00;100100.72;105825;1258;61106;-84
2023/12/16 05:15:43;;;;;;;8.30;6.40;;;;;;;1.72;100.00;100108.14;105724;1255;61537;-85
2023/12/16 05:18:10;;;;;;;10.30;7.10;;;;;;;1.73;100.00;100103.00;105740;1256;73227;-83
2023/12/16 05:20:38;;;;;;;6.80;5.80;;;;;;;1.74;100.00;100107.60;105846;1258;74342;-83
2023/12/16 05:23:05;;;;;;;8.60;7.00;;;;;;;1.76;100.00;100110.40;105649;1256;72677;-86
2023/12/16 05:25:32;;;;;;;9.40;5.90;;;;;;;1.76;100.00;100118.52;105491;1256;61057;-87
2023/12/16 05:27:59;;;;;;;7.80;6.30;;;;;;;1.78;100.00;100118.52;105745;1256;61078;-84
2023/12/16 05:30:26;;;;;;;7.60;6.80;;;;;;;1.79;100.00;100114.27;106160;1254;73789;-83
2023/12/16 05:32:53;;;;;;;8.20;7.10;;;;;;;1.81;100.00;100111.08;105977;1258;74335;-84
2023/12/16 05:35:21;;;;;;;8.50;6.50;;;;;;;1.83;100.00;100121.84;105578;1256;72464;-85
2023/12/16 05:37:48;;;;;;;8.00;6.60;;;;;;;1.83;100.00;100120.96;105796;1258;61401;-84
2023/12/16 05:40:15;;;;;;;7.40;6.30;;;;;;;1.83;100.00;100120.08;105748;1256;61058;-84
2023/12/16 05:42:42;;;;;;;9.10;6.60;;;;;;;1.84;100.00;100119.90;105437;1260;71716;-84
2023/12/16 05:45:09;;;;;;;7.60;6.10;;;;;;;1.84;100.00;100119.36;105553;1259;74449;-84
2023/12/16 05:47:37;;;;;;;7.10;6.40;;;;;;;1.84;100.00;100122.71;105491;1256;71704;-84
2023/12/16 05:50:05;;;;;;;5.90;5.30;;;;;;;1.84;100.00;100122.55;105536;1254;61178;-84
2023/12/16 05:52:32;;;;;;;7.90;6.50;;;;;;;1.84;100.00;100125.55;105509;1258;61087;-84
2023/12/16 05:54:59;;;;;;;8.30;6.80;;;;;;;1.84;100.00;100119.71;105673;1259;73715;-84
2023/12/16 05:57:27;;;;;;;8.30;6.40;;;;;;;1.84;100.00;100120.78;105505;1258;72636;-85
2023/12/16 05:59:54;;;;;;;6.90;5.50;;;;;;;1.84;100.00;100122.02;105546;1258;71642;-85
2023/12/16 06:02:21;;;;;;;8.40;5.70;;;;;;;1.84;100.00;100126.79;105539;1259;61597;-84
2023/12/16 06:04:48;;;;;;;8.80;5.80;;;;;;;1.83;100.00;100129.08;105696;1256;61540;-85
2023/12/16 06:07:15;;;;;;;6.40;5.00;;;;;;;1.83;100.00;100133.15;105530;1259;74150;-83
2023/12/16 06:09:42;;;;;;;6.50;5.40;;;;;;;1.82;100.00;100136.86;105632;1260;73612;-84
2023/12/16 06:12:09;;;;;;;6.00;5.40;;;;;;;1.84;100.00;100143.39;105713;1259;71760;-84
2023/12/16 06:14:37;;;;;;;7.80;5.60;;;;;;;1.84;100.00;100150.09;105656;1254;61158;-82
2023/12/16 06:17:04;;;;;;;7.60;5.30;;;;;;;1.84;100.00;100153.45;105661;1256;61084;-83
2023/12/16 06:19:31;;;;;;;6.00;5.00;;;;;;;1.84;100.00;100158.22;105721;1257;72611;-85
2023/12/16 06:21:58;;;;;;;5.90;4.50;;;;;;;1.85;100.00;100162.81;105615;1257;74721;-83
2023/12/16 06:24:26;;;;;;;8.10;6.30;;;;;;;1.87;100.00;100164.76;105590;1259;72665;-85
2023/12/16 06:26:53;;;;;;;6.60;5.50;;;;;;;1.88;100.00;100168.09;105761;1258;61060;-84
2023/12/16 06:29:20;;;;;;;7.10;5.50;;;;;;;1.89;100.00;100170.39;105815;1254;60987;-84
2023/12/16 06:31:47;;;;;;;8.30;6.10;;;;;;;1.89;100.00;100171.64;105694;1254;73290;-84
2023/12/16 06:34:16;;;;;;;7.00;6.20;;;;;;;1.90;100.00;100174.27;105632;1258;72457;-83
2023/12/16 06:36:44;;;;;;;8.70;6.30;;;;;;;1.91;100.00;100180.27;105737;1258;74227;-85
2023/12/16 06:39:11;;;;;;;7.10;5.30;;;;;;;1.93;100.00;100186.09;105790;1254;61058;-85
2023/12/16 06:41:38;;;;;;;8.30;5.70;;;;;;;1.94;100.00;100188.20;105751;1257;61152;-84
2023/12/16 06:44:05;;;;;;;9.20;6.90;;;;;;;1.96;100.00;100189.61;105721;1259;75381;-85
2023/12/16 06:46:32;;;;;;;7.60;6.70;;;;;;;1.97;100.00;100188.00;105688;1259;75223;-84
2023/12/16 06:49:00;;;;;;;7.50;6.70;;;;;;;1.98;100.00;100188.70;105702;1258;72381;-84
2023/12/16 06:51:27;;;;;;;7.90;6.70;;;;;;;1.99;100.00;100183.41;105762;1259;61059;-84
2023/12/16 06:53:55;;;;;;;9.00;7.40;;;;;;;2.00;100.00;100183.94;105649;1259;61078;-83
2023/12/16 06:56:22;;;;;;;10.20;8.70;;;;;;;2.01;100.00;100185.34;105516;1260;73955;-83
2023/12/16 06:58:49;;;;;;;8.30;7.30;;;;;;;2.02;100.00;100184.80;105765;1255;75390;-84
2023/12/16 07:01:16;;;;;;;7.60;6.80;;;;;;;2.03;100.00;100192.58;105519;1258;70632;-83
2023/12/16 07:03:44;;;;;;;7.70;6.80;;;;;;;2.04;100.00;100193.45;105616;1259;61115;-84
2023/12/16 07:06:11;;;;;;;7.30;6.60;;;;;;;2.06;100.00;100201.57;105741;1259;61081;-83
2023/12/16 07:08:40;;;;;;;8.70;7.60;;;;;;;2.07;100.00;100207.92;105789;1256;74580;-85
2023/12/16 07:11:07;;;;;;;8.30;7.30;;;;;;;2.07;100.00;100217.11;105849;1254;74293;-83
2023/12/16 07:13:34;;;;;;;8.20;7.30;;;;;;;2.08;100.00;100214.45;105632;1259;72851;-85
2023/12/16 07:16:06;;;;;;;8.90;7.70;;;;;;;2.10;100.00;100213.20;105610;1260;61143;-84
2023/12/16 07:18:33;;;;;;;8.80;7.20;;;;;;;2.12;100.00;100214.78;105714;1259;61665;-83
2023/12/16 07:21:00;;;;;;;8.10;6.60;;;;;;;2.13;100.00;100213.72;105772;1258;72579;-85
2023/12/16 07:23:33;;;;;;;8.80;7.10;;;;;;;2.13;100.00;100209.65;105615;1254;73952;-85
2023/12/16 07:26:03;;;;;;;6.50;5.80;;;;;;;2.14;100.00;100213.89;105700;1259;71719;-84
2023/12/16 07:28:30;;;;;;;7.60;6.40;;;;;;;2.15;100.00;100209.46;105765;1259;61148;-85
2023/12/16 07:30:57;;;;;;;6.00;5.20;;;;;;;2.16;100.00;100211.58;105883;1259;61055;-85
2023/12/16 07:33:26;;;;;;;6.40;5.50;;;;;;;2.17;100.00;100211.39;106591;1258;74020;-84
2023/12/16 07:35:53;;;;;;;6.80;5.60;;;;;;;2.17;100.00;100208.91;106654;1259;73249;-84
2023/12/16 07:38:21;;;;;;;5.70;4.90;;;;;;;2.18;100.00;100207.15;105606;1255;71687;-83
2023/12/16 07:40:48;;;;;;;6.20;5.60;;;;;;;2.19;100.00;100211.91;105593;1259;61587;-85
2023/12/16 07:43:15;;;;;;;4.40;3.90;;;;;;;2.21;100.00;100212.59;105604;1259;61031;-84
2023/12/16 07:45:42;;;;;;;5.50;5.00;;;;;;;2.21;100.00;100213.84;105594;1260;74742;-84
2023/12/16 07:48:10;;;;;;;6.20;5.20;;;;;;;2.23;100.00;100215.95;105742;1258;74124;-84
2023/12/16 07:50:37;;;;;;;5.40;4.70;;;;;;;2.25;100.00;100215.77;107780;1254;72295;-82
2023/12/16 07:53:05;;;;;;;6.30;4.90;;;;;;;2.27;100.00;100216.10;107768;1255;61152;-83
2023/12/16 07:55:32;;;;;;;6.00;5.00;;;;;;;2.31;100.00;100220.32;105820;1254;61085;-85
2023/12/16 07:57:59;;;;;;;7.00;5.60;;;;;;;2.33;100.00;100219.06;105716;1254;73751;-85
2023/12/16 08:00:27;;;;;;;6.20;5.00;;;;;;;2.36;100.00;100219.41;105749;1254;73526;-84
2023/12/16 08:02:54;;;;;;;6.20;4.80;;;;;;;2.39;100.00;100228.41;105614;1253;72519;-86
2023/12/16 08:05:21;;;;;;;7.40;5.50;;;;;;;2.41;100.00;100230.69;105676;1259;61171;-85
2023/12/16 08:07:50;;;;;;;7.60;6.60;;;;;;;2.46;100.00;100236.48;106265;1260;61142;-86
2023/12/16 08:10:17;;;;;;;9.00;6.80;;;;;;;2.49;100.00;100244.42;105924;1259;73853;-85
2023/12/16 08:12:45;;;;;;;7.20;6.50;;;;;;;2.53;100.00;100241.22;105692;1260;75197;-84
2023/12/16 08:15:12;;;;;;;6.50;5.80;;;;;;;2.56;100.00;100242.08;105677;1254;72609;-84
2023/12/16 08:17:39;;;;;;;6.30;5.70;;;;;;;2.58;100.00;100240.13;105682;1257;61170;-83
2023/12/16 08:20:07;;;;;;;6.10;5.50;;;;;;;2.61;100.00;100244.34;105833;1254;61393;-85
2023/12/16 08:22:35;;;;;;;6.00;5.40;;;;;;;2.63;100.00;100242.39;105722;1258;73371;-86
2023/12/16 08:25:02;;;;;;;9.40;6.70;;;;;;;2.65;100.00;100248.37;106289;1254;72992;-84
2023/12/16 08:27:29;;;;;;;7.70;6.90;;;;;;;2.67;100.00;100246.06;106430;1259;70736;-84
2023/12/16 08:29:56;;;;;;;10.10;6.90;;;;;;;2.69;100.00;100241.63;106653;1258;61056;-84
2023/12/16 08:32:24;;;;;;;6.90;5.90;;;;;;;2.72;100.00;100237.35;105572;1259;61202;-85
2023/12/16 08:34:51;;;;;;;7.10;6.40;;;;;;;2.76;100.00;100234.85;105602;1260;73827;-83
2023/12/16 08:37:18;;;;;;;6.50;5.90;;;;;;;2.79;100.00;100240.48;105716;1260;73924;-86
2023/12/16 08:39:45;;;;;;;6.90;5.80;;;;;;;2.82;100.00;100246.84;106060;1260;72676;-84
2023/12/16 08:42:12;;;;;;;8.10;7.00;;;;;;;2.84;100.00;100248.23;106603;1259;60932;-83
2023/12/16 08:44:40;;;;;;;6.70;5.90;;;;;;;2.87;100.00;100254.76;105952;1259;61006;-83
2023/12/16 08:47:07;;;;;;;8.60;7.00;;;;;;;2.90;100.00;100249.60;105951;1258;73146;-85
2023/12/16 08:49:34;;;;;;;8.60;6.80;;;;;;;2.92;100.00;100249.94;105540;1262;74480;-86
2023/12/16 08:52:01;;;;;;;8.30;7.30;;;;;;;2.93;100.00;100246.91;105867;1260;72845;-87
2023/12/16 08:54:29;;;;;;;10.10;7.80;;;;;;;2.95;100.00;100250.08;106028;1259;61185;-87
2023/12/16 08:56:56;;;;;;;8.70;7.80;;;;;;;2.98;100.00;100253.41;106027;1259;61109;-87
2023/12/16 08:59:23;;;;;;;8.30;6.90;;;;;;;3.01;100.00;100258.34;105931;1254;72298;-86
2023/12/16 09:02:02;;;;;;;8.20;7.30;;;;;;;3.04;100.00;100257.08;106674;1257;74267;-93
2023/12/16 09:04:53;;;;;;;9.00;6.50;;;;;;;3.07;100.00;100258.30;105873;1263;71831;-84
2023/12/16 09:07:20;;;;;;;7.80;6.00;;;;;;;3.09;100.00;100255.98;105722;1255;61269;-87
2023/12/16 09:09:48;;;;;;;7.10;5.80;;;;;;;3.12;100.00;100257.71;105607;1258;61175;-85
2023/12/16 09:12:18;;;;;;;6.30;5.70;;;;;;;3.14;100.00;100255.91;105670;1257;73857;-86
2023/12/16 09:14:46;;;;;;;6.20;5.60;;;;;;;3.17;100.00;100261.55;105877;1259;73063;-86
2023/12/16 09:17:13;;;;;;;6.10;4.90;;;;;;;3.20;100.00;100257.46;105844;1254;72514;-88
2023/12/16 09:23:08;;;;;;;5.80;4.70;;;;;;;3.27;100.00;100250.84;107004;1257;61221;-89
2023/12/16 09:25:37;;;;;;;7.80;5.40;;;;;;;3.30;100.00;100249.23;106290;1271;72583;-91
2023/12/16 09:28:08;;;;;;;7.20;5.30;;;;;;;3.32;100.00;100245.84;106002;1267;73343;-89
2023/12/16 09:30:36;;;;;;;5.40;4.90;;;;;;;3.36;100.00;100246.50;105301;1272;73046;-90
2023/12/16 09:33:05;;;;;;;5.40;4.80;;;;;;;3.40;100.00;100245.94;105408;1271;61189;-89
2023/12/16 09:35:33;;;;;;;6.10;5.20;;;;;;;3.43;100.00;100241.11;105815;1267;61137;-88
2023/12/16 09:38:00;;;;;;;6.30;4.80;;;;;;;3.46;100.00;100239.48;105893;1267;73901;-88
2023/12/16 09:40:29;;;;;;;5.20;4.30;;;;;;;3.49;100.00;100247.44;105593;1273;74375;-88
2023/12/16 09:43:05;;;;;;;5.50;4.70;;;;;;;3.52;100.00;100249.70;105819;1271;71437;-89
2023/12/16 09:45:32;;;;;;;6.70;5.40;;;;;;;3.55;100.00;100258.17;105332;1271;61204;-86
2023/12/16 09:48:01;;;;;;;6.70;5.50;;;;;;;3.57;100.00;100256.02;105370;1274;61842;-89
2023/12/16 09:50:30;;;;;;;6.50;5.80;;;;;;;3.58;100.00;100247.50;105499;1272;74783;-89
2023/12/16 09:52:58;;;;;;;5.80;5.30;;;;;;;3.60;100.00;100244.64;105137;1267;75195;-88
2023/12/16 09:55:26;;;;;;;6.70;5.30;;;;;;;3.61;100.00;100244.99;105494;1269;72709;-89
2023/12/16 09:57:54;;;;;;;5.90;4.70;;;;;;;3.61;100.00;100240.03;105634;1270;61161;-89
2023/12/16 10:00:21;;;;;;;5.60;4.60;;;;;;;3.61;100.00;100237.02;105266;1267;61124;-91
2023/12/16 10:02:51;;;;;;;7.20;4.50;;;;;;;3.63;100.00;100238.59;105858;1269;74812;-90
2023/12/16 10:05:19;;;;;;;6.30;5.10;;;;;;;3.64;100.00;100238.75;105469;1270;73590;-90
2023/12/16 10:07:47;;;;;;;5.40;4.70;;;;;;;3.66;100.00;100243.52;105727;1273;71390;-89
2023/12/16 10:10:14;;;;;;;5.80;4.80;;;;;;;3.66;100.00;100241.39;105519;1270;61309;-88
2023/12/16 10:12:41;;;;;;;8.40;5.90;;;;;;;3.67;100.00;100243.52;106933;1269;60367;-91
2023/12/16 10:15:08;;;;;;;6.80;5.30;;;;;;;3.67;100.00;100244.76;106460;1266;74523;-89
2023/12/16 10:17:35;;;;;;;5.40;4.80;;;;;;;3.68;100.00;100239.79;106566;1269;73324;-90
2023/12/16 10:20:04;;;;;;;5.80;5.10;;;;;;;3.70;100.00;100243.83;105243;1272;71780;-89
2023/12/16 10:22:33;;;;;;;7.90;6.00;;;;;;;3.71;100.00;100239.57;105159;1268;61058;-91
2023/12/16 10:25:00;;;;;;;6.90;5.60;;;;;;;3.72;100.00;100240.79;105243;1267;61161;-92
2023/12/16 10:27:27;;;;;;;6.20;5.40;;;;;;;3.73;100.00;100243.62;105237;1267;73959;-92
2023/12/16 10:29:54;;;;;;;5.80;5.00;;;;;;;3.75;100.00;100245.72;105515;1267;74308;-90
2023/12/16 10:32:39;;;;;;;6.50;5.00;;;;;;;3.78;100.00;100247.45;105413;1266;73031;-90
2023/12/16 10:35:07;;;;;;;5.90;4.70;;;;;;;3.79;100.00;100247.09;107266;1267;60390;-85
2023/12/16 10:37:36;;;;;;;7.50;5.40;;;;;;;3.81;100.00;100245.83;108265;1267;60939;-89
2023/12/16 10:40:05;;;;;;;5.70;5.00;;;;;;;3.86;100.00;100246.83;107138;1267;72574;-90
2023/12/16 10:42:33;;;;;;;6.20;4.50;;;;;;;3.89;100.00;100238.81;106516;1267;73766;-91
2023/12/16 10:45:00;;;;;;;6.40;5.10;;;;;;;3.93;100.00;100237.70;106304;1267;72784;-88
2023/12/16 10:47:28;;;;;;;8.90;5.20;;;;;;;3.96;100.00;100235.89;108672;1267;59022;-89
2023/12/16 10:49:57;;;;;;;7.40;5.00;;;;;;;4.01;100.00;100226.98;108607;1267;60461;-89
2023/12/16 10:52:25;;;;;;;4.90;4.00;;;;;;;4.05;100.00;100224.26;108637;1267;74716;-89
2023/12/16 10:54:59;;;;;;;6.20;4.40;;;;;;;4.08;100.00;100235.39;108630;1267;72544;-89
2023/12/16 10:57:31;;;;;;;8.90;4.20;;;;;;;4.08;100.00;100237.88;108512;1267;72566;-90
2023/12/16 11:00:05;;;;;;;9.20;5.00;;;;;;;4.09;100.00;100235.90;108609;1267;61146;-89
2023/12/16 11:02:42;;;;;;;9.80;6.20;;;;;;;4.10;100.00;100237.66;108648;1267;60620;-87
2023/12/16 11:05:21;;;;;;;7.30;5.50;;;;;;;4.11;100.00;100236.75;108596;1266;72874;-89
2023/12/16 11:07:49;;;;;;;9.70;5.30;;;;;;;4.10;100.00;100231.45;108670;1267;73052;-88
2023/12/16 11:10:18;;;;;;;39.40;12.20;;;;;;;4.09;100.00;100229.34;108522;1266;71385;-90
2023/12/16 11:12:45;;;;;;;23.90;9.10;;;;;;;4.10;100.00;100229.51;108563;1267;59648;-88
2023/12/16 11:15:12;;;;;;;7.40;5.10;;;;;;;4.11;100.00;100227.19;108543;1267;59026;-88
2023/12/16 11:17:57;;;;;;;12.00;7.20;;;;;;;4.12;100.00;100222.56;108610;1267;72883;-88
2023/12/16 11:20:52;;;;;;;9.80;6.10;;;;;;;4.11;100.00;100223.27;108004;1267;74757;-88
2023/12/16 11:23:19;;;;;;;9.30;6.10;;;;;;;4.11;100.00;100214.77;106381;1269;71216;-89